createdAt,value
2022-08-11T00:00:58.218Z,18.61
2022-08-11T00:02:01.344Z,18.65
2022-08-11T00:03:08.078Z,18.67
2022-08-11T00:04:17.950Z,18.74
2022-08-11T00:05:26.089Z,18.79
2022-08-11T00:06:37.096Z,18.86
2022-08-11T00:07:49.995Z,18.79
2022-08-11T00:08:54.127Z,18.79
2022-08-11T00:09:57.536Z,18.91
2022-08-11T00:11:04.042Z,18.87
2022-08-11T00:12:14.843Z,18.80
2022-08-11T00:13:18.527Z,18.78
2022-08-11T00:14:37.035Z,18.76
2022-08-11T00:15:45.768Z,18.80
2022-08-11T00:17:00.123Z,18.78
2022-08-11T00:18:03.587Z,18.65
2022-08-11T00:19:06.522Z,18.64
2022-08-11T00:20:16.694Z,18.70
2022-08-11T00:21:32.537Z,18.75
2022-08-11T00:22:47.737Z,18.72
2022-08-11T00:23:57.198Z,18.57
2022-08-11T00:25:09.146Z,18.52
2022-08-11T00:26:13.553Z,18.52
2022-08-11T00:27:16.272Z,18.58
2022-08-11T00:28:37.222Z,18.50
2022-08-11T00:29:51.842Z,18.47
2022-08-11T00:30:57.806Z,18.51
2022-08-11T00:32:03.440Z,18.57
2022-08-11T00:33:07.344Z,18.56
2022-08-11T00:34:12.667Z,18.72
2022-08-11T00:35:54.864Z,18.81
2022-08-11T00:36:47.547Z,18.87
2022-08-11T00:37:56.208Z,18.80
2022-08-11T00:39:05.925Z,18.77
2022-08-11T00:40:18.842Z,18.75
2022-08-11T00:41:42.798Z,18.72
2022-08-11T00:43:07.247Z,18.82
2022-08-11T00:44:41.213Z,18.77
2022-08-11T00:46:06.941Z,18.78
2022-08-11T00:47:28.352Z,18.89
2022-08-11T00:49:09.683Z,18.65
2022-08-11T00:51:12.590Z,18.80
2022-08-11T00:52:48.807Z,18.83
2022-08-11T00:54:03.339Z,18.66
2022-08-11T00:55:36.594Z,18.71
2022-08-11T00:56:42.355Z,18.62
2022-08-11T00:57:54.700Z,18.66
2022-08-11T00:59:34.214Z,18.62
2022-08-11T01:01:05.354Z,18.64
2022-08-11T01:02:33.144Z,18.59
2022-08-11T01:04:12.770Z,18.60
2022-08-11T01:05:43.116Z,18.57
2022-08-11T01:08:01.222Z,18.61
2022-08-11T01:09:36.095Z,18.63
2022-08-11T01:10:53.451Z,18.65
2022-08-11T01:12:21.397Z,18.70
2022-08-11T01:13:31.040Z,18.52
2022-08-11T01:15:16.724Z,18.57
2022-08-11T01:16:58.418Z,18.67
2022-08-11T01:18:55.297Z,18.58
2022-08-11T01:20:47.246Z,18.55
2022-08-11T01:22:20.667Z,18.63
2022-08-11T01:23:43.027Z,18.62
2022-08-11T01:25:08.925Z,18.52
2022-08-11T01:26:49.787Z,18.56
2022-08-11T01:28:15.995Z,18.53
2022-08-11T01:29:49.267Z,18.50
2022-08-11T01:31:24.478Z,18.47
2022-08-11T01:33:05.083Z,18.54
2022-08-11T01:34:33.841Z,18.70
2022-08-11T01:36:02.589Z,18.57
2022-08-11T01:37:37.005Z,18.44
2022-08-11T01:39:02.445Z,18.54
2022-08-11T01:40:18.741Z,18.40
2022-08-11T01:42:01.720Z,18.40
2022-08-11T01:43:48.607Z,18.43
2022-08-11T01:45:18.110Z,18.36
2022-08-11T01:46:51.293Z,18.46
2022-08-11T01:48:23.413Z,18.48
2022-08-11T01:50:08.488Z,18.36
2022-08-11T01:51:39.876Z,18.33
2022-08-11T01:53:08.613Z,18.30
2022-08-11T01:54:31.922Z,18.27
2022-08-11T01:56:14.109Z,18.30
2022-08-11T01:57:27.956Z,18.26
2022-08-11T01:58:47.393Z,18.28
2022-08-11T02:00:09.732Z,18.24
2022-08-11T02:01:21.391Z,18.36
2022-08-11T02:02:54.662Z,18.33
2022-08-11T02:04:07.811Z,18.42
2022-08-11T02:05:21.150Z,18.37
2022-08-11T02:06:51.451Z,18.33
2022-08-11T02:08:33.796Z,18.30
2022-08-11T02:10:36.352Z,18.29
2022-08-11T02:11:48.258Z,18.36
2022-08-11T02:13:01.204Z,18.18
2022-08-11T02:14:25.928Z,18.18
2022-08-11T02:15:57.542Z,18.13
2022-08-11T02:17:20.210Z,18.07
2022-08-11T02:18:53.924Z,18.14
2022-08-11T02:20:34.829Z,18.14
2022-08-11T02:22:31.221Z,18.16
2022-08-11T02:24:05.420Z,18.05
2022-08-11T02:25:52.328Z,18.06
2022-08-11T02:27:24.582Z,17.96
2022-08-11T02:28:40.261Z,17.92
2022-08-11T02:30:08.134Z,17.95
2022-08-11T02:32:15.804Z,17.90
2022-08-11T02:33:36.490Z,17.86
2022-08-11T02:35:21.018Z,17.86
2022-08-11T02:36:37.674Z,17.98
2022-08-11T02:37:51.153Z,17.96
2022-08-11T02:39:10.387Z,17.98
2022-08-11T02:40:25.972Z,17.98
2022-08-11T02:41:59.536Z,17.93
2022-08-11T02:43:08.432Z,17.98
2022-08-11T02:44:35.486Z,17.96
2022-08-11T02:46:19.040Z,17.96
2022-08-11T02:48:18.262Z,17.92
2022-08-11T02:50:06.318Z,17.96
2022-08-11T02:51:23.182Z,18.01
2022-08-11T02:52:39.566Z,17.94
2022-08-11T02:53:58.598Z,17.92
2022-08-11T02:55:56.051Z,17.94
2022-08-11T02:57:43.231Z,17.94
2022-08-11T02:59:18.980Z,17.91
2022-08-11T03:00:23.465Z,17.98
2022-08-11T03:01:44.612Z,17.94
2022-08-11T03:02:56.199Z,17.91
2022-08-11T03:03:59.408Z,17.98
2022-08-11T03:05:17.884Z,17.95
2022-08-11T03:06:34.656Z,17.96
2022-08-11T03:07:41.213Z,17.98
2022-08-11T03:08:55.082Z,17.95
2022-08-11T03:10:13.816Z,17.96
2022-08-11T03:11:58.105Z,18.05
2022-08-11T03:13:41.885Z,18.04
2022-08-11T03:15:20.992Z,18.02
2022-08-11T03:16:48.517Z,17.97
2022-08-11T03:18:25.601Z,17.93
2022-08-11T03:20:00.283Z,17.95
2022-08-11T03:21:20.826Z,18.05
2022-08-11T03:22:48.484Z,18.11
2022-08-11T03:24:03.711Z,18.02
2022-08-11T03:25:18.480Z,17.96
2022-08-11T03:26:33.302Z,18.01
2022-08-11T03:28:29.437Z,17.94
2022-08-11T03:29:41.032Z,17.98
2022-08-11T03:30:46.093Z,17.90
2022-08-11T03:32:07.777Z,17.94
2022-08-11T03:33:41.168Z,17.94
2022-08-11T03:34:46.758Z,17.89
2022-08-11T03:36:28.391Z,17.97
2022-08-11T03:37:52.039Z,17.92
2022-08-11T03:39:03.893Z,17.84
2022-08-11T03:40:09.550Z,17.91
2022-08-11T03:42:02.367Z,18.05
2022-08-11T03:43:27.090Z,18.08
2022-08-11T03:44:56.040Z,17.97
2022-08-11T03:46:08.204Z,18.05
2022-08-11T03:47:30.077Z,18.12
2022-08-11T03:49:00.577Z,18.10
2022-08-11T03:50:09.054Z,18.07
2022-08-11T03:51:51.516Z,18.01
2022-08-11T03:53:28.354Z,18.09
2022-08-11T03:54:49.652Z,18.01
2022-08-11T03:56:35.567Z,18.05
2022-08-11T03:57:56.907Z,17.98
2022-08-11T03:59:24.208Z,18.03
2022-08-11T04:01:06.032Z,17.97
2022-08-11T04:02:36.358Z,18.01
2022-08-11T04:04:20.669Z,17.93
2022-08-11T04:06:02.675Z,17.99
2022-08-11T04:07:19.315Z,18.06
2022-08-11T04:09:00.409Z,18.08
2022-08-11T04:10:48.086Z,17.96
2022-08-11T04:12:09.492Z,18.07
2022-08-11T04:13:51.113Z,18.00
2022-08-11T04:15:36.744Z,18.02
2022-08-11T04:17:05.136Z,18.04
2022-08-11T04:18:32.785Z,18.08
2022-08-11T04:20:19.050Z,18.09
2022-08-11T04:21:59.574Z,18.08
2022-08-11T04:24:37.066Z,18.14
2022-08-11T04:24:59.342Z,18.24
2022-08-11T04:26:34.213Z,18.18
2022-08-11T04:27:59.065Z,18.15
2022-08-11T04:29:18.278Z,18.19
2022-08-11T04:30:26.900Z,18.11
2022-08-11T04:31:51.133Z,18.08
2022-08-11T04:33:35.248Z,18.12
2022-08-11T04:35:20.529Z,18.19
2022-08-11T04:37:02.995Z,18.24
2022-08-11T04:38:24.556Z,18.23
2022-08-11T04:39:49.436Z,18.22
2022-08-11T04:41:15.373Z,18.27
2022-08-11T04:42:48.657Z,18.33
2022-08-11T04:44:19.752Z,18.32
2022-08-11T04:45:28.475Z,18.35
2022-08-11T04:46:54.014Z,18.28
2022-08-11T04:48:35.406Z,18.29
2022-08-11T04:50:39.829Z,18.37
2022-08-11T04:52:19.762Z,18.49
2022-08-11T04:54:09.334Z,18.39
2022-08-11T04:56:24.174Z,18.48
2022-08-11T04:58:09.064Z,18.46
2022-08-11T04:59:39.254Z,18.62
2022-08-11T05:01:31.869Z,18.67
2022-08-11T05:03:11.097Z,18.66
2022-08-11T05:05:00.156Z,18.73
2022-08-11T05:06:30.823Z,18.77
2022-08-11T05:07:59.324Z,18.72
2022-08-11T05:09:16.915Z,18.77
2022-08-11T05:10:39.982Z,18.69
2022-08-11T05:11:48.805Z,18.78
2022-08-11T05:13:22.966Z,18.80
2022-08-11T05:15:08.774Z,18.87
2022-08-11T05:16:32.352Z,18.98
2022-08-11T05:17:58.661Z,18.99
2022-08-11T05:19:23.540Z,19.03
2022-08-11T05:20:45.857Z,19.05
2022-08-11T05:22:14.492Z,19.11
2022-08-11T05:23:43.169Z,19.12
2022-08-11T05:26:42.672Z,19.21
2022-08-11T05:27:11.301Z,19.24
2022-08-11T05:28:57.126Z,19.32
2022-08-11T05:30:30.629Z,19.33
2022-08-11T05:32:00.171Z,19.41
2022-08-11T05:33:27.122Z,19.48
2022-08-11T05:34:50.232Z,19.49
2022-08-11T05:36:13.142Z,19.59
2022-08-11T05:37:33.323Z,19.58
2022-08-11T05:38:56.281Z,19.53
2022-08-11T05:40:27.373Z,19.64
2022-08-11T05:41:50.751Z,19.70
2022-08-11T05:43:19.933Z,19.73
2022-08-11T05:44:41.662Z,19.66
2022-08-11T05:46:15.170Z,19.62
2022-08-11T05:47:46.658Z,19.67
2022-08-11T05:49:08.969Z,19.63
2022-08-11T05:50:33.362Z,19.66
2022-08-11T05:52:05.379Z,19.75
2022-08-11T05:53:40.244Z,19.76
2022-08-11T05:55:10.668Z,19.95
2022-08-11T05:56:20.313Z,19.99
2022-08-11T05:57:45.529Z,20.09
2022-08-11T05:58:55.419Z,20.11
2022-08-11T06:00:05.709Z,20.08
2022-08-11T06:01:14.706Z,19.93
2022-08-11T06:02:18.506Z,20.00
2022-08-11T06:03:28.189Z,20.13
2022-08-11T06:04:31.881Z,20.14
2022-08-11T06:05:43.534Z,20.30
2022-08-11T06:06:59.700Z,20.39
2022-08-11T06:08:05.852Z,20.44
2022-08-11T06:09:09.751Z,20.54
2022-08-11T06:10:13.429Z,20.63
2022-08-11T06:11:18.903Z,20.64
2022-08-11T06:12:43.506Z,20.58
2022-08-11T06:13:46.606Z,20.62
2022-08-11T06:14:57.641Z,20.64
2022-08-11T06:16:06.301Z,20.66
2022-08-11T06:17:11.153Z,20.65
2022-08-11T06:18:14.697Z,20.61
2022-08-11T06:19:21.359Z,20.65
2022-08-11T06:20:25.775Z,20.64
2022-08-11T06:21:36.263Z,20.67
2022-08-11T06:22:42.673Z,20.75
2022-08-11T06:23:45.622Z,20.68
2022-08-11T06:24:57.473Z,20.61
2022-08-11T06:26:01.438Z,20.68
2022-08-11T06:27:12.632Z,20.73
2022-08-11T06:28:21.103Z,20.73
2022-08-11T06:29:37.966Z,20.68
2022-08-11T06:30:49.698Z,20.73
2022-08-11T06:32:01.429Z,20.70
2022-08-11T06:33:08.545Z,20.68
2022-08-11T06:34:35.672Z,20.85
2022-08-11T06:36:13.701Z,20.97
2022-08-11T06:37:24.223Z,20.99
2022-08-11T06:38:30.041Z,20.98
2022-08-11T06:39:54.757Z,20.77
2022-08-11T06:41:22.018Z,20.84
2022-08-11T06:42:52.032Z,20.97
2022-08-11T06:44:05.120Z,20.91
2022-08-11T06:45:35.482Z,21.11
2022-08-11T06:46:43.581Z,21.02
2022-08-11T06:47:47.964Z,20.96
2022-08-11T06:48:51.337Z,21.08
2022-08-11T06:50:16.892Z,21.08
2022-08-11T06:51:20.786Z,21.24
2022-08-11T06:52:35.079Z,21.46
2022-08-11T06:54:04.244Z,21.44
2022-08-11T06:55:12.596Z,21.58
2022-08-11T06:57:26.406Z,21.71
2022-08-11T06:58:44.189Z,21.40
2022-08-11T07:00:08.258Z,21.49
2022-08-11T07:01:13.618Z,21.52
2022-08-11T07:02:22.488Z,21.65
2022-08-11T07:03:28.911Z,21.41
2022-08-11T07:04:43.391Z,21.53
2022-08-11T07:05:52.254Z,21.69
2022-08-11T07:07:41.513Z,21.86
2022-08-11T07:09:47.956Z,21.71
2022-08-11T07:11:37.762Z,21.72
2022-08-11T07:13:01.913Z,21.65
2022-08-11T07:14:26.287Z,21.75
2022-08-11T07:16:12.104Z,21.85
2022-08-11T07:17:09.122Z,21.98
2022-08-11T07:18:50.775Z,22.27
2022-08-11T07:20:17.644Z,22.23
2022-08-11T07:22:01.888Z,22.29
2022-08-11T07:23:28.660Z,22.69
2022-08-11T07:25:01.317Z,22.77
2022-08-11T07:26:25.560Z,22.54
2022-08-11T07:27:55.009Z,22.33
2022-08-11T07:28:59.856Z,22.49
2022-08-11T07:30:09.523Z,22.36
2022-08-11T07:31:36.018Z,22.36
2022-08-11T07:32:51.464Z,22.64
2022-08-11T07:34:18.082Z,22.55
2022-08-11T07:35:32.978Z,22.63
2022-08-11T07:36:40.083Z,22.69
2022-08-11T07:37:51.160Z,22.73
2022-08-11T07:39:11.851Z,22.65
2022-08-11T07:40:16.147Z,22.91
2022-08-11T07:41:22.894Z,22.56
2022-08-11T07:42:31.831Z,22.49
2022-08-11T07:43:35.498Z,22.84
2022-08-11T07:44:59.300Z,22.85
2022-08-11T07:46:23.002Z,22.92
2022-08-11T07:47:46.173Z,22.94
2022-08-11T07:49:09.114Z,22.91
2022-08-11T07:50:32.012Z,23.14
2022-08-11T07:51:55.685Z,23.06
2022-08-11T07:53:00.286Z,23.30
2022-08-11T07:54:16.624Z,23.34
2022-08-11T07:55:50.960Z,23.54
2022-08-11T07:56:54.944Z,23.38
2022-08-11T07:58:20.113Z,23.19
2022-08-11T08:00:00.543Z,22.99
2022-08-11T08:01:24.724Z,22.84
2022-08-11T08:02:46.460Z,22.84
2022-08-11T08:04:08.703Z,22.97
2022-08-11T08:05:30.198Z,22.95
2022-08-11T08:06:53.086Z,22.96
2022-08-11T08:08:17.999Z,23.07
2022-08-11T08:09:40.745Z,23.07
2022-08-11T08:11:02.544Z,23.31
2022-08-11T08:12:24.872Z,23.41
2022-08-11T08:13:47.171Z,23.38
2022-08-11T08:15:13.847Z,23.38
2022-08-11T08:16:35.716Z,22.90
2022-08-11T08:18:20.556Z,23.17
2022-08-11T08:19:19.256Z,22.87
2022-08-11T08:20:28.283Z,22.72
2022-08-11T08:21:32.346Z,22.52
2022-08-11T08:22:38.742Z,22.84
2022-08-11T08:23:45.199Z,22.92
2022-08-11T08:24:49.244Z,22.66
2022-08-11T08:25:52.801Z,22.75
2022-08-11T08:27:00.611Z,22.84
2022-08-11T08:28:07.691Z,22.93
2022-08-11T08:29:29.746Z,22.74
2022-08-11T08:30:47.621Z,22.75
2022-08-11T08:31:53.497Z,23.15
2022-08-11T08:32:57.958Z,23.38
2022-08-11T08:34:00.846Z,23.18
2022-08-11T08:35:05.084Z,23.30
2022-08-11T08:36:17.312Z,23.32
2022-08-11T08:37:45.671Z,23.68
2022-08-11T08:38:49.958Z,23.49
2022-08-11T08:39:54.015Z,23.33
2022-08-11T08:40:57.564Z,23.42
2022-08-11T08:42:04.370Z,23.52
2022-08-11T08:43:15.430Z,23.88
2022-08-11T08:44:37.793Z,24.25
2022-08-11T08:45:44.670Z,24.44
2022-08-11T08:46:55.609Z,24.23
2022-08-11T08:48:05.167Z,24.36
2022-08-11T08:49:11.480Z,24.24
2022-08-11T08:50:21.732Z,23.75
2022-08-11T08:51:58.759Z,23.85
2022-08-11T08:53:05.925Z,23.87
2022-08-11T08:54:14.795Z,24.51
2022-08-11T08:55:21.888Z,24.64
2022-08-11T08:56:28.660Z,24.62
2022-08-11T08:57:39.596Z,24.61
2022-08-11T08:58:51.750Z,24.51
2022-08-11T08:59:55.410Z,24.30
2022-08-11T09:01:00.870Z,24.11
2022-08-11T09:02:06.476Z,24.58
2022-08-11T09:03:39.130Z,24.98
2022-08-11T09:04:36.276Z,24.84
2022-08-11T09:05:40.083Z,25.08
2022-08-11T09:06:44.019Z,25.51
2022-08-11T09:07:55.358Z,25.64
2022-08-11T09:08:58.346Z,25.55
2022-08-11T09:10:01.904Z,25.05
2022-08-11T09:11:24.489Z,25.39
2022-08-11T09:12:46.370Z,25.06
2022-08-11T09:14:05.623Z,24.59
2022-08-11T09:15:12.025Z,24.83
2022-08-11T09:16:16.492Z,25.54
2022-08-11T09:17:21.395Z,25.78
2022-08-11T09:18:24.501Z,24.98
2022-08-11T09:19:27.693Z,25.21
2022-08-11T09:20:34.387Z,24.99
2022-08-11T09:21:48.810Z,25.52
2022-08-11T09:24:59.363Z,25.87
2022-08-11T09:26:21.714Z,24.65
2022-08-11T09:27:29.409Z,25.10
2022-08-11T09:28:33.177Z,24.33
2022-08-11T09:29:39.414Z,24.95
2022-08-11T09:30:43.992Z,24.78
2022-08-11T09:31:49.338Z,24.93
2022-08-11T09:32:58.307Z,24.60
2022-08-11T09:34:02.412Z,24.69
2022-08-11T09:35:06.157Z,24.94
2022-08-11T09:36:28.710Z,25.37
2022-08-11T09:37:54.945Z,25.84
2022-08-11T09:39:19.584Z,26.11
2022-08-11T09:40:32.592Z,25.85
2022-08-11T09:42:01.271Z,25.67
2022-08-11T09:43:21.673Z,25.79
2022-08-11T09:44:47.316Z,25.36
2022-08-11T09:45:54.290Z,25.47
2022-08-11T09:47:00.488Z,25.84
2022-08-11T09:48:05.687Z,25.98
2022-08-11T09:49:08.714Z,25.18
2022-08-11T09:50:12.289Z,25.00
2022-08-11T09:51:17.468Z,24.77
2022-08-11T09:52:22.930Z,24.63
2022-08-11T09:53:36.433Z,24.30
2022-08-11T09:54:48.263Z,24.06
2022-08-11T09:55:52.364Z,24.08
2022-08-11T09:57:23.657Z,23.87
2022-08-11T09:58:41.743Z,23.83
2022-08-11T09:59:53.093Z,24.17
2022-08-11T10:01:27.660Z,24.30
2022-08-11T10:02:31.374Z,24.48
2022-08-11T10:03:40.475Z,24.49
2022-08-11T10:04:47.294Z,24.71
2022-08-11T10:06:20.770Z,24.99
2022-08-11T10:07:51.538Z,25.25
2022-08-11T10:09:08.278Z,25.50
2022-08-11T10:10:32.439Z,25.96
2022-08-11T10:14:34.063Z,26.33
2022-08-11T10:15:59.610Z,25.56
2022-08-11T10:17:09.555Z,25.61
2022-08-11T10:18:37.789Z,25.72
2022-08-11T10:19:43.650Z,26.02
2022-08-11T10:20:50.463Z,25.92
2022-08-11T10:22:14.235Z,25.61
2022-08-11T10:24:00.303Z,25.56
2022-08-11T10:25:19.739Z,25.34
2022-08-11T10:26:43.711Z,25.28
2022-08-11T10:28:17.674Z,24.88
2022-08-11T10:29:37.467Z,24.90
2022-08-11T10:30:58.922Z,25.49
2022-08-11T10:32:21.548Z,26.06
2022-08-11T10:33:58.987Z,26.33
2022-08-11T10:35:02.981Z,26.29
2022-08-11T10:36:16.412Z,26.70
2022-08-11T10:37:24.032Z,26.78
2022-08-11T10:38:52.537Z,26.45
2022-08-11T10:39:56.702Z,26.54
2022-08-11T10:41:19.419Z,26.25
2022-08-11T10:42:57.315Z,25.57
2022-08-11T10:44:03.998Z,25.78
2022-08-11T10:45:27.492Z,26.24
2022-08-11T10:46:50.238Z,26.04
2022-08-11T10:47:57.908Z,25.95
2022-08-11T10:49:02.256Z,26.26
2022-08-11T10:50:29.314Z,26.35
2022-08-11T10:51:53.867Z,26.48
2022-08-11T10:53:19.563Z,26.26
2022-08-11T10:54:42.323Z,25.57
2022-08-11T10:57:34.575Z,25.01
2022-08-11T10:58:49.637Z,24.98
2022-08-11T10:59:55.204Z,25.39
2022-08-11T11:00:59.404Z,25.85
2022-08-11T11:02:02.648Z,26.05
2022-08-11T11:03:22.185Z,25.83
2022-08-11T11:04:39.570Z,25.92
2022-08-11T11:06:27.808Z,26.71
2022-08-11T11:07:17.514Z,26.71
2022-08-11T11:10:02.064Z,26.67
2022-08-11T11:11:07.997Z,26.75
2022-08-11T11:12:39.958Z,26.85
2022-08-11T11:14:08.287Z,26.80
2022-08-11T11:15:32.060Z,27.07
2022-08-11T11:16:50.339Z,27.03
2022-08-11T11:18:04.929Z,27.71
2022-08-11T11:19:10.033Z,27.79
2022-08-11T11:20:34.525Z,28.11
2022-08-11T11:21:42.309Z,27.57
2022-08-11T11:22:52.436Z,27.31
2022-08-11T11:24:20.125Z,27.16
2022-08-11T11:25:44.432Z,27.44
2022-08-11T11:27:21.230Z,26.94
2022-08-11T11:28:41.672Z,26.63
2022-08-11T11:30:02.504Z,26.62
2022-08-11T11:31:22.566Z,26.12
2022-08-11T11:32:36.092Z,26.41
2022-08-11T11:34:06.711Z,25.92
2022-08-11T11:35:52.753Z,25.92
2022-08-11T11:36:59.317Z,25.82
2022-08-11T11:38:04.982Z,25.31
2022-08-11T11:39:09.994Z,25.74
2022-08-11T11:40:21.603Z,25.90
2022-08-11T11:41:32.436Z,25.99
2022-08-11T11:42:35.143Z,26.02
2022-08-11T11:43:38.380Z,25.89
2022-08-11T11:44:44.908Z,25.64
2022-08-11T11:45:47.957Z,25.79
2022-08-11T11:46:52.539Z,26.43
2022-08-11T11:47:59.196Z,26.01
2022-08-11T11:49:15.322Z,26.25
2022-08-11T11:50:38.630Z,26.42
2022-08-11T11:51:42.840Z,26.48
2022-08-11T11:52:48.564Z,26.08
2022-08-11T11:53:52.641Z,25.56
2022-08-11T11:54:57.710Z,25.52
2022-08-11T11:56:02.135Z,25.28
2022-08-11T11:57:25.886Z,25.68
2022-08-11T11:58:48.429Z,25.87
2022-08-11T12:00:12.669Z,26.01
2022-08-11T12:01:20.252Z,26.13
2022-08-11T12:02:23.160Z,26.32
2022-08-11T12:03:29.033Z,26.47
2022-08-11T12:04:32.230Z,26.84
2022-08-11T12:05:36.428Z,26.82
2022-08-11T12:06:40.078Z,26.72
2022-08-11T12:08:05.306Z,25.85
2022-08-11T12:09:18.591Z,26.11
2022-08-11T12:10:21.890Z,26.13
2022-08-11T12:11:46.201Z,25.89
2022-08-11T12:13:07.942Z,25.61
2022-08-11T12:14:11.094Z,25.84
2022-08-11T12:15:13.994Z,26.16
2022-08-11T12:16:34.668Z,26.01
2022-08-11T12:17:39.508Z,25.79
2022-08-11T12:18:46.051Z,25.59
2022-08-11T12:19:50.047Z,25.72
2022-08-11T12:20:53.171Z,25.84
2022-08-11T12:22:16.819Z,25.65
2022-08-11T12:23:38.578Z,25.71
2022-08-11T12:25:04.852Z,25.99
2022-08-11T12:26:27.463Z,26.12
2022-08-11T12:27:31.528Z,26.42
2022-08-11T12:28:35.639Z,26.23
2022-08-11T12:29:41.271Z,26.33
2022-08-11T12:30:50.696Z,26.14
2022-08-11T12:31:58.914Z,26.44
2022-08-11T12:33:01.786Z,26.68
2022-08-11T12:34:06.912Z,26.50
2022-08-11T12:35:09.762Z,26.72
2022-08-11T12:36:16.501Z,26.52
2022-08-11T12:37:32.389Z,26.51
2022-08-11T12:38:36.729Z,26.02
2022-08-11T12:40:16.940Z,25.86
2022-08-11T12:41:52.404Z,26.32
2022-08-11T12:43:21.556Z,25.79
2022-08-11T12:44:47.083Z,25.52
2022-08-11T12:45:58.822Z,26.10
2022-08-11T12:47:02.292Z,25.85
2022-08-11T12:49:00.675Z,25.90
2022-08-11T12:50:22.745Z,25.72
2022-08-11T12:52:11.621Z,25.86
2022-08-11T12:53:13.511Z,26.35
2022-08-11T12:54:28.783Z,26.87
2022-08-11T12:56:03.937Z,27.16
2022-08-11T12:57:36.554Z,27.23
2022-08-11T12:58:42.049Z,26.86
2022-08-11T13:00:04.828Z,26.93
2022-08-11T13:01:28.261Z,27.09
2022-08-11T13:02:50.522Z,27.11
2022-08-11T13:04:13.222Z,27.23
2022-08-11T13:05:16.880Z,27.59
2022-08-11T13:06:23.430Z,27.28
2022-08-11T13:07:50.786Z,26.33
2022-08-11T13:09:01.506Z,26.28
2022-08-11T13:10:06.691Z,26.43
2022-08-11T13:11:55.601Z,26.54
2022-08-11T13:12:59.143Z,26.30
2022-08-11T13:14:03.273Z,25.64
2022-08-11T13:15:07.104Z,25.84
2022-08-11T13:16:11.459Z,25.95
2022-08-11T13:17:40.032Z,25.89
2022-08-11T13:18:47.084Z,25.65
2022-08-11T13:19:52.159Z,25.80
2022-08-11T13:20:57.326Z,25.86
2022-08-11T13:22:01.227Z,26.21
2022-08-11T13:23:04.584Z,26.35
2022-08-11T13:24:07.782Z,26.08
2022-08-11T13:25:15.128Z,26.06
2022-08-11T13:26:20.929Z,25.89
2022-08-11T13:27:28.692Z,26.05
2022-08-11T13:28:32.996Z,26.36
2022-08-11T13:29:36.568Z,26.28
2022-08-11T13:30:59.247Z,26.40
2022-08-11T13:32:02.378Z,26.35
2022-08-11T13:33:07.836Z,26.47
2022-08-11T13:34:11.323Z,26.43
2022-08-11T13:35:20.465Z,26.24
2022-08-11T13:36:27.637Z,25.83
2022-08-11T13:38:17.755Z,25.91
2022-08-11T13:38:56.224Z,25.85
2022-08-11T13:40:02.530Z,25.63
2022-08-11T13:41:25.718Z,25.57
2022-08-11T13:42:29.184Z,25.62
2022-08-11T13:43:38.304Z,25.36
2022-08-11T13:44:42.328Z,25.21
2022-08-11T13:45:48.062Z,25.16
2022-08-11T13:46:55.414Z,25.22
2022-08-11T13:47:59.401Z,25.59
2022-08-11T13:49:03.566Z,25.39
2022-08-11T13:50:08.097Z,25.46
2022-08-11T13:51:34.588Z,25.19
2022-08-11T13:52:42.187Z,25.05
2022-08-11T13:53:47.800Z,25.59
2022-08-11T13:54:53.822Z,25.76
2022-08-11T13:56:00.730Z,25.95
2022-08-11T13:57:09.265Z,25.99
2022-08-11T13:58:20.672Z,25.78
2022-08-11T13:59:51.839Z,25.95
2022-08-11T14:00:55.868Z,26.04
2022-08-11T14:02:28.752Z,25.76
2022-08-11T14:04:28.433Z,25.77
2022-08-11T14:05:13.487Z,25.49
2022-08-11T14:06:20.248Z,25.80
2022-08-11T14:07:27.744Z,25.83
2022-08-11T14:08:40.239Z,25.87
2022-08-11T14:09:46.863Z,25.54
2022-08-11T14:12:22.332Z,25.24
2022-08-11T14:13:09.475Z,25.34
2022-08-11T14:14:17.869Z,25.30
2022-08-11T14:15:27.904Z,25.23
2022-08-11T14:16:37.192Z,25.21
2022-08-11T14:17:48.963Z,25.49
2022-08-11T14:18:57.966Z,25.27
2022-08-11T14:20:38.753Z,25.37
2022-08-11T14:21:49.173Z,25.32
2022-08-11T14:22:57.596Z,25.61
2022-08-11T14:24:02.961Z,25.24
2022-08-11T14:25:06.632Z,24.96
2022-08-11T14:26:29.171Z,24.75
2022-08-11T14:28:25.594Z,24.85
2022-08-11T14:29:13.610Z,24.98
2022-08-11T14:30:35.052Z,24.99
2022-08-11T14:31:41.068Z,24.98
2022-08-11T14:32:53.067Z,24.79
2022-08-11T14:34:03.242Z,24.82
2022-08-11T14:35:06.553Z,25.13
2022-08-11T14:36:11.961Z,25.34
2022-08-11T14:37:19.446Z,25.53
2022-08-11T14:38:22.519Z,25.35
2022-08-11T14:39:28.915Z,25.15
2022-08-11T14:40:50.540Z,25.47
2022-08-11T14:42:15.864Z,25.41
2022-08-11T14:44:02.775Z,25.21
2022-08-11T14:45:57.475Z,24.87
2022-08-11T14:47:23.141Z,25.22
2022-08-11T14:48:28.941Z,24.80
2022-08-11T14:49:35.863Z,24.62
2022-08-11T14:50:39.688Z,24.72
2022-08-11T14:51:46.881Z,24.90
2022-08-11T14:53:01.968Z,25.05
2022-08-11T14:54:23.488Z,24.99
2022-08-11T14:55:47.726Z,25.32
2022-08-11T14:56:50.628Z,25.41
2022-08-11T14:57:56.713Z,25.19
2022-08-11T14:59:01.599Z,25.17
2022-08-11T15:00:07.926Z,25.27
2022-08-11T15:01:30.954Z,25.50
2022-08-11T15:02:56.649Z,25.48
2022-08-11T15:04:35.326Z,25.40
2022-08-11T15:05:24.939Z,25.60
2022-08-11T15:06:28.878Z,25.23
2022-08-11T15:07:35.049Z,25.09
2022-08-11T15:08:55.489Z,25.00
2022-08-11T15:10:14.805Z,25.22
2022-08-11T15:11:38.613Z,25.39
2022-08-11T15:12:45.083Z,25.20
2022-08-11T15:13:51.540Z,25.45
2022-08-11T15:15:13.526Z,25.48
2022-08-11T15:16:34.903Z,25.42
2022-08-11T15:17:43.387Z,25.19
2022-08-11T15:18:46.629Z,25.37
2022-08-11T15:20:09.146Z,25.09
2022-08-11T15:21:30.341Z,25.04
2022-08-11T15:22:51.573Z,25.34
2022-08-11T15:24:12.906Z,25.45
2022-08-11T15:25:16.459Z,24.91
2022-08-11T15:26:48.953Z,24.98
2022-08-11T15:28:13.335Z,25.13
2022-08-11T15:29:39.868Z,25.20
2022-08-11T15:31:02.826Z,24.94
2022-08-11T15:32:24.187Z,25.05
2022-08-11T15:33:47.964Z,24.97
2022-08-11T15:35:19.073Z,24.82
2022-08-11T15:36:42.441Z,24.78
2022-08-11T15:37:48.368Z,24.80
2022-08-11T15:39:07.925Z,24.68
2022-08-11T15:40:39.985Z,24.78
2022-08-11T15:42:28.135Z,24.53
2022-08-11T15:44:01.721Z,24.61
2022-08-11T15:45:28.002Z,24.62
2022-08-11T15:46:33.328Z,24.61
2022-08-11T15:48:05.279Z,24.40
2022-08-11T15:50:11.128Z,24.35
2022-08-11T15:50:56.267Z,24.31
2022-08-11T15:52:08.214Z,24.44
2022-08-11T15:53:33.339Z,24.44
2022-08-11T15:54:42.309Z,24.52
2022-08-11T15:55:46.149Z,24.62
2022-08-11T15:56:52.162Z,24.71
2022-08-11T15:58:16.776Z,24.51
2022-08-11T15:59:41.735Z,24.62
2022-08-11T16:01:09.057Z,24.49
2022-08-11T16:02:18.012Z,24.66
2022-08-11T16:04:06.815Z,24.67
2022-08-11T16:05:14.615Z,24.53
2022-08-11T16:06:50.691Z,24.36
2022-08-11T16:07:57.080Z,24.39
2022-08-11T16:09:04.262Z,24.30
2022-08-11T16:10:21.746Z,24.37
2022-08-11T16:11:26.144Z,24.52
2022-08-11T16:12:33.050Z,24.34
2022-08-11T16:13:42.042Z,24.18
2022-08-11T16:15:09.340Z,24.29
2022-08-11T16:16:17.361Z,24.31
2022-08-11T16:17:23.362Z,24.34
2022-08-11T16:18:41.030Z,24.16
2022-08-11T16:19:49.432Z,24.08
2022-08-11T16:20:57.134Z,24.22
2022-08-11T16:21:59.868Z,24.22
2022-08-11T16:23:08.333Z,24.07
2022-08-11T16:27:06.062Z,24.11
2022-08-11T16:27:06.984Z,24.05
2022-08-11T16:27:12.939Z,24.13
2022-08-11T16:28:19.009Z,24.14
2022-08-11T16:29:25.301Z,24.04
2022-08-11T16:30:29.710Z,24.07
2022-08-11T16:31:33.752Z,23.96
2022-08-11T16:32:40.953Z,23.90
2022-08-11T16:33:49.551Z,23.76
2022-08-11T16:35:41.739Z,23.74
2022-08-11T16:37:03.576Z,23.75
2022-08-11T16:38:27.604Z,23.83
2022-08-11T16:39:31.738Z,23.77
2022-08-11T16:40:35.581Z,23.84
2022-08-11T16:42:00.070Z,23.79
2022-08-11T16:43:26.163Z,23.70
2022-08-11T16:44:48.526Z,24.10
2022-08-11T16:46:10.821Z,23.81
2022-08-11T16:47:18.388Z,23.85
2022-08-11T16:48:43.775Z,23.55
2022-08-11T16:49:52.623Z,23.50
2022-08-11T16:51:00.072Z,23.52
2022-08-11T16:52:11.082Z,23.44
2022-08-11T16:53:17.641Z,23.60
2022-08-11T16:54:20.904Z,23.71
2022-08-11T16:55:52.709Z,23.40
2022-08-11T16:56:54.131Z,23.47
2022-08-11T16:58:19.444Z,23.49
2022-08-11T16:59:36.496Z,23.49
2022-08-11T17:00:41.129Z,23.45
2022-08-11T17:01:49.204Z,23.49
2022-08-11T17:03:12.636Z,23.35
2022-08-11T17:04:50.679Z,23.36
2022-08-11T17:06:13.192Z,23.24